createdAt,value
2018-09-24T00:00:48.897Z,4.10
2018-09-24T00:03:17.222Z,5.50
2018-09-24T00:05:45.555Z,3.20
2018-09-24T00:08:13.947Z,5.17
2018-09-24T00:10:42.302Z,6.30
2018-09-24T00:13:10.635Z,3.37
2018-09-24T00:15:38.983Z,3.33
2018-09-24T00:18:07.376Z,7.10
2018-09-24T00:20:35.696Z,4.93
2018-09-24T00:23:04.027Z,4.80
2018-09-24T00:25:32.389Z,3.27
2018-09-24T00:28:00.931Z,4.00
2018-09-24T00:30:29.228Z,7.03
2018-09-24T00:32:57.606Z,4.57
2018-09-24T00:35:26.028Z,6.90
2018-09-24T00:37:54.408Z,3.97
2018-09-24T00:40:22.760Z,3.80
2018-09-24T00:42:51.072Z,5.73
2018-09-24T00:45:19.437Z,5.80
2018-09-24T00:47:47.888Z,6.23
2018-09-24T00:50:16.203Z,6.57
2018-09-24T00:52:44.570Z,5.00
2018-09-24T00:55:12.944Z,4.77
2018-09-24T00:57:41.447Z,4.33
2018-09-24T01:00:09.747Z,4.67
2018-09-24T01:02:38.104Z,4.00
2018-09-24T01:05:06.600Z,5.83
2018-09-24T01:07:34.999Z,4.90
2018-09-24T01:10:03.323Z,5.00
2018-09-24T01:12:31.657Z,6.07
2018-09-24T01:14:59.992Z,4.33
2018-09-24T01:17:28.413Z,6.47
2018-09-24T01:19:56.877Z,5.67
2018-09-24T01:22:25.189Z,6.97
2018-09-24T01:24:53.575Z,4.37
2018-09-24T01:27:21.903Z,5.53
2018-09-24T01:29:50.220Z,4.50
2018-09-24T01:32:18.710Z,5.07
2018-09-24T01:34:47.184Z,7.90
2018-09-24T01:37:15.551Z,4.53
2018-09-24T01:39:43.881Z,5.77
2018-09-24T01:42:12.189Z,5.20
2018-09-24T01:44:40.865Z,7.50
2018-09-24T01:47:09.284Z,5.20
2018-09-24T01:49:37.637Z,6.97
2018-09-24T01:52:05.973Z,4.83
2018-09-24T01:54:34.319Z,7.97
2018-09-24T01:57:02.691Z,6.80
2018-09-24T01:59:31.009Z,7.27
2018-09-24T02:01:59.391Z,6.23
2018-09-24T02:04:27.791Z,7.37
2018-09-24T02:07:02.839Z,6.60
2018-09-24T02:09:31.510Z,9.63
2018-09-24T02:12:04.833Z,10.03
2018-09-24T02:14:33.292Z,6.73
2018-09-24T02:17:01.855Z,5.87
2018-09-24T02:19:30.218Z,7.47
2018-09-24T02:21:58.608Z,10.30
2018-09-24T02:24:27.026Z,5.93
2018-09-24T02:26:55.397Z,6.57
2018-09-24T02:29:23.752Z,8.23
2018-09-24T02:31:52.072Z,7.47
2018-09-24T02:34:26.766Z,8.40
2018-09-24T02:36:55.221Z,7.70
2018-09-24T02:39:23.542Z,6.20
2018-09-24T02:41:53.812Z,7.23
2018-09-24T02:44:23.228Z,9.00
2018-09-24T02:46:51.732Z,5.73
2018-09-24T02:49:20.166Z,7.37
2018-09-24T02:51:48.521Z,8.20
2018-09-24T02:54:16.849Z,7.73
2018-09-24T02:56:47.436Z,8.63
2018-09-24T02:59:15.905Z,8.50
2018-09-24T03:01:44.320Z,10.00
2018-09-24T03:04:12.619Z,9.80
2018-09-24T03:06:40.960Z,9.50
2018-09-24T03:09:11.730Z,7.77
2018-09-24T03:11:40.195Z,10.07
2018-09-24T03:14:08.593Z,8.20
2018-09-24T03:16:37.271Z,8.73
2018-09-24T03:19:05.632Z,7.17
2018-09-24T03:21:33.951Z,7.63
2018-09-24T03:24:02.428Z,7.23
2018-09-24T03:26:30.839Z,9.97
2018-09-24T03:28:59.249Z,9.90
2018-09-24T03:31:27.593Z,8.00
2018-09-24T03:33:56.084Z,10.83
2018-09-24T03:36:24.524Z,8.97
2018-09-24T03:38:52.831Z,6.83
2018-09-24T03:41:21.200Z,9.77
2018-09-24T03:43:49.656Z,14.43
2018-09-24T03:46:18.095Z,11.10
2018-09-24T03:48:46.501Z,10.00
2018-09-24T03:51:14.851Z,8.47
2018-09-24T03:53:43.325Z,11.13
2018-09-24T03:56:11.668Z,11.50
2018-09-24T03:58:40.075Z,9.77
2018-09-24T04:01:08.415Z,10.57
2018-09-24T04:03:36.877Z,7.73
2018-09-24T04:06:10.465Z,10.37
2018-09-24T04:08:44.202Z,10.83
2018-09-24T04:11:17.838Z,15.60
2018-09-24T04:13:51.524Z,10.57
2018-09-24T04:16:25.144Z,9.87
2018-09-24T04:18:58.844Z,12.00
2018-09-24T04:21:32.616Z,9.63
2018-09-24T04:24:06.402Z,11.30
2018-09-24T04:26:40.077Z,12.73
2018-09-24T04:29:13.822Z,9.57
2018-09-24T04:31:47.526Z,9.03
2018-09-24T04:34:21.143Z,12.40
2018-09-24T04:36:54.819Z,11.13
2018-09-24T04:39:28.575Z,10.97
2018-09-24T04:42:02.069Z,7.50
2018-09-24T04:44:35.740Z,15.07
2018-09-24T04:47:09.428Z,12.00
2018-09-24T04:49:43.082Z,13.03
2018-09-24T04:54:51.079Z,11.80
2018-09-24T04:57:24.717Z,11.27
2018-09-24T04:59:58.355Z,14.73
2018-09-24T05:02:31.957Z,7.17
2018-09-24T05:05:05.645Z,12.77
2018-09-24T05:07:39.387Z,17.00
2018-09-24T05:10:13.183Z,19.97
2018-09-24T05:12:46.986Z,10.40
2018-09-24T05:15:20.804Z,8.77
2018-09-24T05:17:54.547Z,10.13
2018-09-24T05:20:28.363Z,9.40
2018-09-24T05:23:02.149Z,9.10
2018-09-24T05:25:35.853Z,10.57
2018-09-24T05:28:09.610Z,9.70
2018-09-24T05:30:43.495Z,10.53
2018-09-24T05:33:17.263Z,9.33
2018-09-24T05:35:51.106Z,11.03
2018-09-24T05:38:24.869Z,9.63
2018-09-24T05:40:58.699Z,11.50
2018-09-24T05:43:32.484Z,12.00
2018-09-24T05:46:06.280Z,10.17
2018-09-24T05:48:39.999Z,10.77
2018-09-24T05:51:13.878Z,11.23
2018-09-24T05:53:47.616Z,10.93
2018-09-24T05:56:21.360Z,8.90
2018-09-24T05:58:55.040Z,9.00
2018-09-24T06:01:28.727Z,8.67
2018-09-24T06:04:02.552Z,7.10
2018-09-24T06:06:36.356Z,14.90
2018-09-24T06:09:12.855Z,10.00
2018-09-24T06:11:46.912Z,7.73
2018-09-24T06:14:20.643Z,10.93
2018-09-24T06:16:54.289Z,11.67
2018-09-24T06:19:28.029Z,9.93
2018-09-24T06:22:01.596Z,8.27
2018-09-24T06:24:35.292Z,13.13
2018-09-24T06:27:09.016Z,5.97
2018-09-24T06:29:42.824Z,6.43
2018-09-24T06:32:16.516Z,19.97
2018-09-24T06:34:50.040Z,12.87
2018-09-24T06:37:23.627Z,7.63
2018-09-24T06:39:57.323Z,5.77
2018-09-24T06:42:31.147Z,6.90
2018-09-24T06:45:04.768Z,6.00
2018-09-24T06:47:38.452Z,11.50
2018-09-24T06:50:12.166Z,11.07
2018-09-24T06:52:45.939Z,8.47
2018-09-24T06:55:19.767Z,9.97
2018-09-24T06:57:53.510Z,10.97
2018-09-24T07:00:27.063Z,6.83
2018-09-24T07:03:00.804Z,11.87
2018-09-24T07:05:34.585Z,7.77
2018-09-24T07:08:08.207Z,10.57
2018-09-24T07:10:41.827Z,9.03
2018-09-24T07:16:00.563Z,6.13
2018-09-24T07:18:34.436Z,6.67
2018-09-24T07:21:08.293Z,8.60
2018-09-24T07:23:41.951Z,7.73
2018-09-24T07:26:15.797Z,5.53
2018-09-24T07:28:49.727Z,5.97
2018-09-24T07:31:36.073Z,6.93
2018-09-24T07:34:10.735Z,6.20
2018-09-24T07:36:45.988Z,7.77
2018-09-24T07:39:21.925Z,6.80
2018-09-24T07:41:57.247Z,4.37
2018-09-24T07:44:31.032Z,6.93
2018-09-24T07:47:04.690Z,11.17
2018-09-24T07:49:38.645Z,8.37
2018-09-24T07:52:12.416Z,7.37
2018-09-24T07:54:46.239Z,12.27
2018-09-24T07:57:20.030Z,4.37
2018-09-24T07:59:53.858Z,7.83
2018-09-24T08:02:27.473Z,6.50
2018-09-24T08:05:01.356Z,6.70
2018-09-24T08:07:35.295Z,5.23
2018-09-24T08:10:09.079Z,8.57
2018-09-24T08:12:42.744Z,4.67
2018-09-24T08:15:16.531Z,6.13
2018-09-24T08:17:50.498Z,13.77
2018-09-24T08:20:24.282Z,8.33
2018-09-24T08:22:58.119Z,6.30
2018-09-24T08:25:31.872Z,5.53
2018-09-24T08:28:05.871Z,4.87
2018-09-24T08:30:39.766Z,8.73
2018-09-24T08:33:13.615Z,7.27
2018-09-24T08:35:47.451Z,3.50
2018-09-24T08:38:21.328Z,7.47
2018-09-24T08:40:55.050Z,6.07
2018-09-24T08:43:28.860Z,5.90
2018-09-24T08:46:02.709Z,7.20
2018-09-24T08:48:36.550Z,5.57
2018-09-24T08:51:10.294Z,7.80
2018-09-24T08:53:44.111Z,17.00
2018-09-24T08:56:18.039Z,5.17
2018-09-24T08:58:51.768Z,7.07
2018-09-24T09:01:25.569Z,7.23
2018-09-24T09:03:59.409Z,8.37
2018-09-24T09:06:33.202Z,2.83
2018-09-24T09:09:06.958Z,5.67
2018-09-24T09:11:40.602Z,3.87
2018-09-24T09:14:14.327Z,4.37
2018-09-24T09:16:48.017Z,3.30
2018-09-24T09:19:21.691Z,10.33
2018-09-24T09:21:55.441Z,7.07
2018-09-24T09:24:29.221Z,2.97
2018-09-24T09:27:02.958Z,6.87
2018-09-24T09:29:36.768Z,9.37
2018-09-24T09:32:10.572Z,3.60
2018-09-24T09:34:44.326Z,3.40
2018-09-24T09:37:18.041Z,3.40
2018-09-24T09:39:51.736Z,4.67
2018-09-24T09:42:25.644Z,5.10
2018-09-24T09:44:59.395Z,7.17
2018-09-24T09:47:33.058Z,7.13
2018-09-24T09:50:07.396Z,4.10
2018-09-24T09:52:41.219Z,4.60
2018-09-24T09:55:14.992Z,2.73
2018-09-24T09:57:49.056Z,4.70
2018-09-24T10:00:22.744Z,4.83
2018-09-24T10:02:56.750Z,8.27
2018-09-24T10:05:30.672Z,5.33
2018-09-24T10:08:04.551Z,2.57
2018-09-24T10:10:38.213Z,4.20
2018-09-24T10:13:13.233Z,4.70
2018-09-24T10:15:46.933Z,7.67
2018-09-24T10:18:20.649Z,4.00
2018-09-24T10:20:54.565Z,4.70
2018-09-24T10:23:28.499Z,4.70
2018-09-24T10:26:03.312Z,5.83
2018-09-24T10:28:37.060Z,3.40
2018-09-24T10:31:10.859Z,5.17
2018-09-24T10:33:44.762Z,9.17
2018-09-24T10:36:18.451Z,3.17
2018-09-24T10:38:52.297Z,5.40
2018-09-24T10:41:26.152Z,5.47
2018-09-24T10:43:59.813Z,2.17
2018-09-24T10:46:33.701Z,3.33
2018-09-24T10:49:07.510Z,3.40
2018-09-24T10:51:41.340Z,4.13
2018-09-24T10:54:15.033Z,5.27
2018-09-24T10:56:48.890Z,3.20
2018-09-24T10:59:22.725Z,4.10
2018-09-24T11:01:56.523Z,5.30
2018-09-24T11:04:30.297Z,4.37
2018-09-24T11:07:04.413Z,3.93
2018-09-24T11:09:38.352Z,5.03
2018-09-24T11:12:12.164Z,5.70
2018-09-24T11:14:45.702Z,5.17
2018-09-24T11:17:19.598Z,5.40
2018-09-24T11:19:53.228Z,3.07
2018-09-24T11:22:27.223Z,5.23
2018-09-24T11:25:00.963Z,4.40
2018-09-24T11:27:34.906Z,4.60
2018-09-24T11:30:08.867Z,4.10
2018-09-24T11:35:34.399Z,3.40
2018-09-24T11:38:08.368Z,3.80
2018-09-24T11:40:42.112Z,8.00
2018-09-24T11:43:15.765Z,8.43
2018-09-24T11:45:49.594Z,3.60
2018-09-24T11:48:23.364Z,1.93
2018-09-24T11:50:57.003Z,3.47
2018-09-24T11:53:30.808Z,3.93
2018-09-24T11:56:04.423Z,3.30
2018-09-24T11:58:38.264Z,3.23
2018-09-24T12:01:12.292Z,2.43
2018-09-24T12:03:46.031Z,4.00
2018-09-24T12:06:19.649Z,5.20
2018-09-24T12:08:53.323Z,3.00
2018-09-24T12:11:26.936Z,3.97
2018-09-24T12:14:00.556Z,1.90
2018-09-24T12:16:34.202Z,3.67
2018-09-24T12:19:08.092Z,3.13
2018-09-24T12:21:41.815Z,3.13
2018-09-24T12:24:15.733Z,3.80
2018-09-24T12:26:49.542Z,3.70
2018-09-24T12:29:23.290Z,2.23
2018-09-24T12:31:56.995Z,2.37
2018-09-24T12:34:30.853Z,4.17
2018-09-24T12:37:04.591Z,2.10
2018-09-24T12:39:38.346Z,4.80
2018-09-24T12:42:12.048Z,5.03
2018-09-24T12:44:45.630Z,4.67
2018-09-24T12:47:19.430Z,4.60
2018-09-24T12:49:53.144Z,4.27
2018-09-24T12:52:26.919Z,3.87
2018-09-24T12:55:00.731Z,5.97
2018-09-24T12:57:34.535Z,3.33
2018-09-24T13:00:08.592Z,4.97
2018-09-24T13:02:42.416Z,2.67
2018-09-24T13:05:16.051Z,3.17
2018-09-24T13:07:49.823Z,1.87
2018-09-24T13:10:23.591Z,3.60
2018-09-24T13:12:57.268Z,3.67
2018-09-24T13:15:31.111Z,2.53
2018-09-24T13:18:04.888Z,2.47
2018-09-24T13:20:38.796Z,4.47
2018-09-24T13:23:13.094Z,4.90
2018-09-24T13:25:46.883Z,7.33
2018-09-24T13:28:20.810Z,6.07
2018-09-24T13:30:54.447Z,2.40
2018-09-24T13:33:28.097Z,1.80
2018-09-24T13:36:08.786Z,4.63
2018-09-24T13:38:42.533Z,3.47
2018-09-24T13:41:16.584Z,3.53
2018-09-24T13:43:50.340Z,3.23
2018-09-24T13:46:24.052Z,7.17
2018-09-24T13:48:57.832Z,5.40
2018-09-24T13:51:31.575Z,1.63
2018-09-24T13:54:05.311Z,3.27
2018-09-24T13:56:39.139Z,3.07
2018-09-24T13:59:12.859Z,4.13
2018-09-24T14:01:47.818Z,3.50
2018-09-24T14:04:21.800Z,3.13
2018-09-24T14:06:55.737Z,2.80
2018-09-24T14:09:29.497Z,3.10
2018-09-24T14:12:03.296Z,2.83
2018-09-24T14:14:37.114Z,1.20
2018-09-24T14:17:11.099Z,4.03
2018-09-24T14:19:44.802Z,2.23
2018-09-24T14:22:18.420Z,1.13
2018-09-24T14:24:52.100Z,2.20
2018-09-24T14:27:25.849Z,2.43
2018-09-24T14:29:59.610Z,1.60
2018-09-24T14:32:33.234Z,2.97
2018-09-24T14:35:07.066Z,1.10
2018-09-24T14:37:40.678Z,2.37
2018-09-24T14:40:14.438Z,1.80
2018-09-24T14:42:48.604Z,2.17
2018-09-24T14:45:24.889Z,2.53
2018-09-24T14:47:58.759Z,3.03
2018-09-24T14:50:32.384Z,2.50
2018-09-24T14:53:06.105Z,1.07
2018-09-24T14:55:39.845Z,1.73
2018-09-24T14:58:13.800Z,1.40
2018-09-24T15:00:47.671Z,1.20
2018-09-24T15:03:21.383Z,1.07
2018-09-24T15:05:55.217Z,0.70
2018-09-24T15:08:29.072Z,2.23
2018-09-24T15:11:02.882Z,1.87
2018-09-24T15:13:36.582Z,1.37
2018-09-24T15:16:10.433Z,1.87
2018-09-24T15:18:44.452Z,3.13
2018-09-24T15:21:18.249Z,4.03
2018-09-24T15:23:52.147Z,3.47
2018-09-24T15:26:25.980Z,2.00
2018-09-24T15:28:59.603Z,1.60
2018-09-24T15:31:33.384Z,1.97
2018-09-24T15:34:07.116Z,1.30
2018-09-24T15:36:40.685Z,3.87
2018-09-24T15:39:14.313Z,5.37
2018-09-24T15:41:48.039Z,2.70
2018-09-24T15:44:21.616Z,3.37
2018-09-24T15:46:55.432Z,1.10
2018-09-24T15:49:29.259Z,2.30
2018-09-24T15:52:02.873Z,5.10
2018-09-24T15:54:36.651Z,1.87
2018-09-24T15:57:10.475Z,2.93
2018-09-24T15:59:44.287Z,2.10
2018-09-24T16:02:18.008Z,4.13
2018-09-24T16:04:51.705Z,4.50
2018-09-24T16:07:25.647Z,5.13
2018-09-24T16:09:59.248Z,4.20
2018-09-24T16:12:32.901Z,2.27
2018-09-24T16:15:06.698Z,4.80
2018-09-24T16:17:40.538Z,5.27
2018-09-24T16:20:14.263Z,3.20
2018-09-24T16:22:48.144Z,3.63
2018-09-24T16:25:21.995Z,5.57
2018-09-24T16:28:02.511Z,3.70
2018-09-24T16:30:36.232Z,2.23
2018-09-24T16:33:10.006Z,1.83
2018-09-24T16:35:44.057Z,2.33
2018-09-24T16:38:17.649Z,0.70
2018-09-24T16:40:51.503Z,2.40
2018-09-24T16:43:25.262Z,4.30
2018-09-24T16:48:26.317Z,2.23
2018-09-24T16:50:59.940Z,4.20
2018-09-24T16:53:33.729Z,1.70
2018-09-24T16:56:07.483Z,2.03
2018-09-24T16:58:41.182Z,1.53
2018-09-24T17:01:14.987Z,2.90
2018-09-24T17:03:48.760Z,3.27
2018-09-24T17:06:22.420Z,2.97
2018-09-24T17:08:56.160Z,4.43
2018-09-24T17:11:29.702Z,1.80
2018-09-24T17:14:03.442Z,3.40
2018-09-24T17:16:37.873Z,5.30
2018-09-24T17:19:11.703Z,3.80
2018-09-24T17:21:46.475Z,3.03
2018-09-24T17:24:20.834Z,6.20
2018-09-24T17:26:54.487Z,1.53
2018-09-24T17:29:28.296Z,1.20
2018-09-24T17:32:02.065Z,4.77
2018-09-24T17:34:35.710Z,2.60
2018-09-24T17:37:09.413Z,2.20
2018-09-24T17:39:43.236Z,2.43
2018-09-24T17:42:17.138Z,2.37
2018-09-24T17:44:50.947Z,2.27
2018-09-24T17:47:24.764Z,2.90
2018-09-24T17:49:58.566Z,3.57
2018-09-24T17:52:32.383Z,2.47
2018-09-24T17:55:06.231Z,2.17
2018-09-24T17:57:40.229Z,4.63
2018-09-24T18:00:14.109Z,1.83
2018-09-24T18:02:47.897Z,3.47
2018-09-24T18:05:21.762Z,5.83
2018-09-24T18:07:56.522Z,4.27
2018-09-24T18:10:30.194Z,4.43
2018-09-24T18:13:04.027Z,3.33
2018-09-24T18:15:37.849Z,3.12
2018-09-24T18:18:11.526Z,3.73
2018-09-24T18:20:45.427Z,3.70
2018-09-24T18:23:20.480Z,2.57
2018-09-24T18:25:54.433Z,2.73
2018-09-24T18:28:28.406Z,4.00
2018-09-24T18:31:02.013Z,2.70
2018-09-24T18:33:36.483Z,3.30
2018-09-24T18:36:10.148Z,9.50
2018-09-24T18:38:43.931Z,3.30
2018-09-24T18:41:17.845Z,4.07
2018-09-24T18:43:51.685Z,3.57
2018-09-24T18:46:25.591Z,3.43
2018-09-24T18:48:59.364Z,2.73
2018-09-24T18:51:33.014Z,3.07
2018-09-24T18:54:06.888Z,1.77
2018-09-24T18:56:40.670Z,2.63
2018-09-24T18:59:14.427Z,2.23
2018-09-24T19:01:48.167Z,4.10
2018-09-24T19:04:21.989Z,1.60
2018-09-24T19:06:55.709Z,2.43
2018-09-24T19:09:29.519Z,2.90
2018-09-24T19:12:03.204Z,5.50
2018-09-24T19:14:37.045Z,2.30
2018-09-24T19:17:10.957Z,1.53
2018-09-24T19:19:44.897Z,2.77
2018-09-24T19:22:18.620Z,3.13
2018-09-24T19:24:52.392Z,1.70
2018-09-24T19:27:26.216Z,4.63
2018-09-24T19:30:00.082Z,5.20
2018-09-24T19:32:34.072Z,5.87
2018-09-24T19:35:07.643Z,2.97
2018-09-24T19:37:41.472Z,3.50
2018-09-24T19:40:15.184Z,3.73
2018-09-24T19:42:49.056Z,2.70
2018-09-24T19:45:22.944Z,5.07
2018-09-24T19:47:56.651Z,3.33
2018-09-24T19:50:30.749Z,4.47
2018-09-24T19:53:04.383Z,3.53
2018-09-24T19:55:38.082Z,1.60
2018-09-24T19:58:11.944Z,2.80
2018-09-24T20:00:45.635Z,2.03
2018-09-24T20:03:19.200Z,3.63
2018-09-24T20:05:52.966Z,9.13
2018-09-24T20:08:26.734Z,3.00
2018-09-24T20:11:00.481Z,6.80
2018-09-24T20:13:34.182Z,3.10
2018-09-24T20:16:07.907Z,4.50
2018-09-24T20:18:41.725Z,4.73
2018-09-24T20:21:15.451Z,3.57
2018-09-24T20:23:49.127Z,2.07
2018-09-24T20:26:22.851Z,4.10
2018-09-24T20:28:56.682Z,6.30
2018-09-24T20:31:30.519Z,5.77
2018-09-24T20:34:04.228Z,5.07
2018-09-24T20:36:38.029Z,7.07
2018-09-24T20:39:13.420Z,5.83
2018-09-24T20:41:48.122Z,3.33
2018-09-24T20:44:22.147Z,3.50
2018-09-24T20:46:55.749Z,4.80
2018-09-24T20:49:29.456Z,4.20
2018-09-24T20:52:03.048Z,3.57
2018-09-24T20:54:36.760Z,4.37
2018-09-24T20:57:10.546Z,6.13
2018-09-24T20:59:44.327Z,6.37
2018-09-24T21:02:18.222Z,7.67
2018-09-24T21:04:51.945Z,6.23
2018-09-24T21:07:25.745Z,7.93
2018-09-24T21:09:59.505Z,4.70
2018-09-24T21:12:33.318Z,5.47
2018-09-24T21:15:07.118Z,5.67
2018-09-24T21:17:40.925Z,3.53
2018-09-24T21:20:14.648Z,2.30
2018-09-24T21:22:48.190Z,5.10
2018-09-24T21:25:22.008Z,7.20
2018-09-24T21:27:55.735Z,3.77
2018-09-24T21:30:29.603Z,8.10
2018-09-24T21:33:03.370Z,3.37
2018-09-24T21:35:36.945Z,5.07
2018-09-24T21:38:10.804Z,5.70
2018-09-24T21:40:44.532Z,4.60
2018-09-24T21:43:18.432Z,8.50
2018-09-24T21:45:52.155Z,3.03
2018-09-24T21:48:25.936Z,6.27
2018-09-24T21:51:00.169Z,4.63
2018-09-24T21:53:33.983Z,3.90
2018-09-24T21:56:07.784Z,12.43
2018-09-24T21:58:41.711Z,6.63
2018-09-24T22:01:15.491Z,10.37
2018-09-24T22:03:49.333Z,5.67
2018-09-24T22:06:23.239Z,3.97
2018-09-24T22:08:56.964Z,4.20
2018-09-24T22:11:30.652Z,9.80
2018-09-24T22:14:04.503Z,7.77
2018-09-24T22:16:38.255Z,4.67
2018-09-24T22:19:11.974Z,4.57
2018-09-24T22:21:46.003Z,6.60
2018-09-24T22:24:19.637Z,5.57
2018-09-24T22:26:53.459Z,7.20
2018-09-24T22:29:27.252Z,4.17
2018-09-24T22:32:00.955Z,3.50
2018-09-24T22:34:34.684Z,4.53
2018-09-24T22:37:08.379Z,4.23
2018-09-24T22:39:43.513Z,5.23
2018-09-24T22:42:17.221Z,4.33
2018-09-24T22:44:50.971Z,5.63
2018-09-24T22:47:24.725Z,4.67
2018-09-24T22:49:58.397Z,7.60
2018-09-24T22:52:32.162Z,4.17
2018-09-24T22:55:05.990Z,4.07
2018-09-24T22:57:39.727Z,5.17
2018-09-24T23:00:13.414Z,4.10
2018-09-24T23:02:47.151Z,6.20
2018-09-24T23:05:20.931Z,4.73
2018-09-24T23:07:54.529Z,6.77
2018-09-24T23:10:33.350Z,5.67
2018-09-24T23:13:06.963Z,4.47
2018-09-24T23:15:40.799Z,4.53
2018-09-24T23:18:14.626Z,6.17
2018-09-24T23:20:48.955Z,10.77
2018-09-24T23:23:22.759Z,6.87
2018-09-24T23:25:56.483Z,5.33
2018-09-24T23:28:30.391Z,9.10
2018-09-24T23:31:03.971Z,3.80
2018-09-24T23:33:37.884Z,6.37
2018-09-24T23:36:11.724Z,3.87
2018-09-24T23:38:45.510Z,4.60
2018-09-24T23:41:19.211Z,4.53
2018-09-24T23:43:53.048Z,5.10
2018-09-24T23:46:26.911Z,4.47
2018-09-24T23:49:00.999Z,5.27
2018-09-24T23:51:34.580Z,8.10
2018-09-24T23:54:08.395Z,5.33
2018-09-24T23:56:42.154Z,3.87
2018-09-24T23:59:16.002Z,10.43
